createdAt,value
2023-05-15T00:00:59.910Z,8.00
2023-05-15T00:03:39.669Z,10.20
2023-05-15T00:06:16.420Z,8.00
2023-05-15T00:08:54.104Z,9.10
2023-05-15T00:11:30.701Z,11.10
2023-05-15T00:14:08.599Z,12.90
2023-05-15T00:16:45.994Z,8.40
2023-05-15T00:19:25.472Z,8.70
2023-05-15T00:22:02.294Z,10.90
2023-05-15T00:24:42.703Z,8.70
2023-05-15T00:27:19.840Z,10.50
2023-05-15T00:29:55.474Z,8.50
2023-05-15T00:32:33.200Z,8.20
2023-05-15T00:35:11.325Z,9.10
2023-05-15T00:37:47.894Z,8.20
2023-05-15T00:40:28.717Z,8.10
2023-05-15T00:43:05.310Z,9.60
2023-05-15T00:45:41.334Z,8.40
2023-05-15T00:48:20.083Z,11.00
2023-05-15T00:51:00.268Z,9.00
2023-05-15T00:53:35.796Z,10.20
2023-05-15T00:56:13.225Z,7.70
2023-05-15T00:58:52.957Z,9.80
2023-05-15T01:01:28.253Z,9.50
2023-05-15T01:04:06.598Z,8.50
2023-05-15T01:06:44.298Z,9.20
2023-05-15T01:09:21.823Z,8.20
2023-05-15T01:12:03.725Z,9.10
2023-05-15T01:14:41.130Z,8.90
2023-05-15T01:17:16.701Z,8.80
2023-05-15T01:19:56.645Z,7.40
2023-05-15T01:22:50.383Z,6.50
2023-05-15T01:25:56.602Z,8.50
2023-05-15T01:28:40.745Z,7.10
2023-05-15T01:31:23.431Z,8.10
2023-05-15T01:34:04.457Z,6.80
2023-05-15T01:36:49.255Z,6.80
2023-05-15T01:39:31.530Z,7.80
2023-05-15T01:42:12.168Z,8.60
2023-05-15T01:44:55.113Z,10.10
2023-05-15T01:47:36.557Z,9.30
2023-05-15T01:50:17.588Z,6.90
2023-05-15T01:52:55.783Z,8.30
2023-05-15T01:55:33.487Z,12.70
2023-05-15T01:58:21.648Z,7.20
2023-05-15T02:01:00.313Z,7.10
2023-05-15T02:03:41.092Z,7.40
2023-05-15T02:06:21.455Z,7.60
2023-05-15T02:08:57.163Z,8.10
2023-05-15T02:11:33.233Z,6.20
2023-05-15T02:14:11.454Z,8.60
2023-05-15T02:16:51.994Z,6.60
2023-05-15T02:19:28.151Z,7.00
2023-05-15T02:22:06.716Z,7.30
2023-05-15T02:24:44.903Z,10.60
2023-05-15T02:27:27.254Z,7.20
2023-05-15T02:30:18.928Z,8.90
2023-05-15T02:33:10.569Z,5.80
2023-05-15T02:35:55.509Z,5.90
2023-05-15T02:38:36.651Z,6.90
2023-05-15T02:41:15.383Z,6.60
2023-05-15T02:44:02.620Z,5.10
2023-05-15T02:46:42.315Z,8.70
2023-05-15T02:49:19.179Z,7.80
2023-05-15T02:51:55.432Z,5.00
2023-05-15T02:54:32.448Z,6.90
2023-05-15T02:57:08.926Z,8.30
2023-05-15T02:59:44.945Z,6.10
2023-05-15T03:02:21.476Z,7.00
2023-05-15T03:04:57.927Z,8.70
2023-05-15T03:07:32.552Z,11.30
2023-05-15T03:10:10.256Z,8.20
2023-05-15T03:12:44.697Z,7.50
2023-05-15T03:15:21.656Z,8.70
2023-05-15T03:17:57.750Z,11.60
2023-05-15T03:20:37.334Z,7.80
2023-05-15T03:23:17.019Z,4.80
2023-05-15T03:25:53.363Z,7.80
2023-05-15T03:28:29.254Z,7.70
2023-05-15T03:31:06.493Z,5.90
2023-05-15T03:33:46.533Z,6.80
2023-05-15T03:36:23.591Z,6.90
2023-05-15T03:38:59.540Z,6.50
2023-05-15T03:41:35.650Z,6.90
2023-05-15T03:44:10.854Z,7.60
2023-05-15T03:46:50.923Z,8.30
2023-05-15T03:49:26.149Z,9.10
2023-05-15T03:52:04.405Z,10.30
2023-05-15T03:54:41.530Z,7.10
2023-05-15T03:57:18.753Z,12.30
2023-05-15T03:59:56.455Z,7.00
2023-05-15T04:02:33.852Z,6.20
2023-05-15T04:05:14.078Z,6.90
2023-05-15T04:07:48.678Z,7.00
2023-05-15T04:10:24.965Z,9.00
2023-05-15T04:13:04.392Z,7.10
2023-05-15T04:15:41.395Z,8.40
2023-05-15T04:18:18.630Z,10.60
2023-05-15T04:20:56.507Z,9.50
2023-05-15T04:23:32.248Z,7.60
2023-05-15T04:26:06.927Z,8.30
2023-05-15T04:28:56.166Z,7.30
2023-05-15T04:31:41.098Z,8.00
2023-05-15T04:34:16.045Z,9.20
2023-05-15T04:36:55.116Z,8.70
2023-05-15T04:39:32.013Z,8.40
2023-05-15T04:42:12.322Z,7.90
2023-05-15T04:44:49.577Z,6.50
2023-05-15T04:47:26.954Z,8.20
2023-05-15T04:50:03.908Z,7.30
2023-05-15T04:52:38.950Z,7.60
2023-05-15T04:55:15.876Z,6.60
2023-05-15T04:57:53.473Z,10.20
2023-05-15T05:00:31.577Z,7.00
2023-05-15T05:03:10.201Z,9.20
2023-05-15T05:05:46.640Z,13.10
2023-05-15T05:08:21.430Z,10.20
2023-05-15T05:11:01.730Z,8.60
2023-05-15T05:13:38.377Z,8.20
2023-05-15T05:16:14.686Z,7.70
2023-05-15T05:18:52.719Z,6.80
2023-05-15T05:21:29.350Z,11.70
2023-05-15T05:24:06.165Z,10.50
2023-05-15T05:26:41.627Z,8.40
2023-05-15T05:29:19.152Z,9.70
2023-05-15T05:31:57.194Z,7.30
2023-05-15T05:34:34.366Z,9.60
2023-05-15T05:37:13.442Z,7.50
2023-05-15T05:39:47.971Z,6.90
2023-05-15T05:42:34.728Z,9.90
2023-05-15T05:45:21.045Z,9.80
2023-05-15T05:47:59.384Z,10.30
2023-05-15T05:50:36.817Z,8.90
2023-05-15T05:53:14.290Z,11.00
2023-05-15T05:55:50.604Z,10.80
2023-05-15T05:58:27.571Z,8.80
2023-05-15T06:01:06.722Z,7.50
2023-05-15T06:03:45.370Z,8.30
2023-05-15T06:06:22.750Z,9.50
2023-05-15T06:09:03.122Z,10.50
2023-05-15T06:11:39.928Z,12.30
2023-05-15T06:14:18.193Z,10.50
2023-05-15T06:16:59.334Z,8.60
2023-05-15T06:19:36.529Z,8.80
2023-05-15T06:22:13.100Z,9.60
2023-05-15T06:24:52.626Z,9.00
2023-05-15T06:27:35.373Z,8.10
2023-05-15T06:30:23.647Z,8.60
2023-05-15T06:33:07.013Z,12.30
2023-05-15T06:35:50.187Z,9.80
2023-05-15T06:38:48.469Z,8.90
2023-05-15T06:41:24.848Z,11.90
2023-05-15T06:44:02.184Z,9.60
2023-05-15T06:46:37.985Z,7.20
2023-05-15T06:49:19.288Z,10.40
2023-05-15T06:52:03.615Z,10.40
2023-05-15T06:54:43.410Z,6.80
2023-05-15T06:57:20.383Z,7.70
2023-05-15T07:00:03.963Z,9.00
2023-05-15T07:02:44.203Z,7.10
2023-05-15T07:05:25.223Z,9.80
2023-05-15T07:08:04.510Z,9.50
2023-05-15T07:10:43.623Z,9.00
2023-05-15T07:13:23.352Z,7.70
2023-05-15T07:16:05.664Z,7.60
2023-05-15T07:18:44.667Z,9.60
2023-05-15T07:21:22.115Z,8.80
2023-05-15T07:23:58.659Z,8.80
2023-05-15T07:26:59.152Z,14.60
2023-05-15T07:29:38.744Z,17.20
2023-05-15T07:32:21.513Z,16.50
2023-05-15T07:35:00.622Z,15.00
2023-05-15T07:37:40.498Z,13.40
2023-05-15T07:40:25.915Z,11.60
2023-05-15T07:43:02.512Z,10.90
2023-05-15T07:45:38.795Z,11.60
2023-05-15T07:48:22.062Z,10.30
2023-05-15T07:50:59.629Z,9.70
2023-05-15T07:53:39.971Z,9.80
2023-05-15T07:56:17.867Z,7.00
2023-05-15T07:58:58.056Z,9.60
2023-05-15T08:01:37.976Z,9.30
2023-05-15T08:04:18.171Z,8.20
2023-05-15T08:06:57.247Z,9.60
2023-05-15T08:09:38.766Z,13.90
2023-05-15T08:12:26.839Z,14.70
2023-05-15T08:15:09.984Z,8.30
2023-05-15T08:17:48.743Z,9.10
2023-05-15T08:20:25.798Z,10.10
2023-05-15T08:23:09.441Z,7.30
2023-05-15T08:25:44.612Z,7.60
2023-05-15T08:28:23.765Z,10.10
2023-05-15T08:31:01.603Z,10.20
2023-05-15T08:33:38.304Z,9.20
2023-05-15T08:36:22.995Z,9.00
2023-05-15T08:39:00.701Z,8.90
2023-05-15T08:41:51.042Z,10.00
2023-05-15T08:44:33.291Z,8.50
2023-05-15T08:47:12.775Z,8.50
2023-05-15T08:50:06.008Z,8.60
2023-05-15T08:52:44.684Z,7.90
2023-05-15T08:55:26.586Z,7.60
2023-05-15T08:58:07.687Z,8.20
2023-05-15T09:00:45.674Z,9.10
2023-05-15T09:03:27.028Z,8.80
2023-05-15T09:06:03.849Z,7.80
2023-05-15T09:08:40.900Z,9.50
2023-05-15T09:11:24.150Z,8.60
2023-05-15T09:14:01.624Z,8.10
2023-05-15T09:16:40.758Z,8.70
2023-05-15T09:19:16.944Z,8.40
2023-05-15T09:22:01.186Z,11.20
2023-05-15T09:24:45.986Z,8.60
2023-05-15T09:27:22.348Z,9.70
2023-05-15T09:30:12.499Z,9.60
2023-05-15T09:32:55.518Z,12.50
2023-05-15T09:35:34.559Z,10.10
2023-05-15T09:38:16.801Z,11.80
2023-05-15T09:41:13.934Z,10.40
2023-05-15T09:43:54.903Z,9.80
2023-05-15T09:46:39.906Z,12.80
2023-05-15T09:49:15.787Z,10.00
2023-05-15T09:52:05.498Z,9.00
2023-05-15T09:54:47.503Z,9.00
2023-05-15T09:57:34.535Z,9.10
2023-05-15T10:00:32.075Z,8.10
2023-05-15T10:03:12.561Z,8.90
2023-05-15T10:05:47.945Z,8.70
2023-05-15T10:08:30.034Z,10.90
2023-05-15T10:11:14.783Z,11.20
2023-05-15T10:14:08.214Z,9.90
2023-05-15T10:16:47.983Z,9.80
2023-05-15T10:19:30.319Z,10.10
2023-05-15T10:22:14.575Z,10.30
2023-05-15T10:25:00.368Z,11.30
2023-05-15T10:27:40.887Z,10.10
2023-05-15T10:30:20.449Z,10.30
2023-05-15T10:32:59.319Z,10.10
2023-05-15T10:35:34.769Z,11.40
2023-05-15T10:38:13.026Z,12.10
2023-05-15T10:40:48.799Z,13.10
2023-05-15T10:43:37.238Z,11.50
2023-05-15T10:46:12.210Z,10.30
2023-05-15T10:48:49.811Z,9.90
2023-05-15T10:51:31.617Z,10.40
2023-05-15T10:54:11.462Z,10.80
2023-05-15T10:56:52.479Z,10.00
2023-05-15T10:59:36.444Z,10.70
2023-05-15T11:02:29.738Z,10.70
2023-05-15T11:05:13.034Z,10.30
2023-05-15T11:08:29.886Z,11.00
2023-05-15T11:11:08.235Z,10.50
2023-05-15T11:14:16.878Z,10.30
2023-05-15T11:17:05.934Z,11.50
2023-05-15T11:19:58.774Z,12.60
2023-05-15T11:22:37.158Z,10.00
2023-05-15T11:25:17.898Z,9.00
2023-05-15T11:27:59.871Z,10.40
2023-05-15T11:30:44.542Z,9.50
2023-05-15T11:33:21.142Z,8.20
2023-05-15T11:36:03.072Z,8.40
2023-05-15T11:38:44.101Z,10.80
2023-05-15T11:41:28.176Z,8.50
2023-05-15T11:44:05.920Z,8.50
2023-05-15T11:46:40.722Z,8.60
2023-05-15T11:49:16.976Z,8.50
2023-05-15T11:51:54.944Z,8.20
2023-05-15T11:54:30.207Z,8.90
2023-05-15T11:57:09.083Z,10.80
2023-05-15T11:59:47.001Z,9.80
2023-05-15T12:02:25.527Z,8.00
2023-05-15T12:05:00.142Z,10.00
2023-05-15T12:07:38.602Z,10.50
2023-05-15T12:10:16.034Z,10.70
2023-05-15T12:12:51.325Z,11.60
2023-05-15T12:15:28.515Z,8.10
2023-05-15T12:18:09.995Z,11.40
2023-05-15T12:20:50.501Z,8.40
2023-05-15T12:23:27.348Z,10.20
2023-05-15T12:26:05.221Z,7.60
2023-05-15T12:28:41.061Z,9.80
2023-05-15T12:31:18.233Z,12.20
2023-05-15T12:33:52.991Z,9.60
2023-05-15T12:36:30.083Z,8.70
2023-05-15T12:39:10.986Z,8.90
2023-05-15T12:41:47.796Z,9.30
2023-05-15T12:44:27.861Z,7.70
2023-05-15T12:47:07.730Z,13.40
2023-05-15T12:49:44.055Z,8.10
2023-05-15T12:52:20.950Z,9.40
2023-05-15T12:54:57.644Z,15.80
2023-05-15T12:57:36.275Z,16.10
2023-05-15T13:00:16.746Z,14.10
2023-05-15T13:02:54.686Z,11.90
2023-05-15T13:05:36.968Z,10.70
2023-05-15T13:08:19.718Z,8.80
2023-05-15T13:11:01.604Z,7.50
2023-05-15T13:13:51.935Z,8.90
2023-05-15T13:16:39.352Z,9.00
2023-05-15T13:19:16.275Z,7.60
2023-05-15T13:21:56.859Z,7.10
2023-05-15T13:24:32.987Z,8.30
2023-05-15T13:27:07.974Z,7.00
2023-05-15T13:29:42.762Z,7.80
2023-05-15T13:32:18.158Z,7.70
2023-05-15T13:34:59.471Z,7.60
2023-05-15T13:37:35.730Z,9.50
2023-05-15T13:40:17.320Z,8.40
2023-05-15T13:42:51.721Z,8.40
2023-05-15T13:45:27.648Z,8.20
2023-05-15T13:48:04.834Z,8.30
2023-05-15T13:50:44.561Z,8.30
2023-05-15T13:53:20.123Z,7.90
2023-05-15T13:56:05.091Z,8.40
2023-05-15T13:58:43.066Z,7.70
2023-05-15T14:01:18.932Z,8.80
2023-05-15T14:04:13.408Z,9.20
2023-05-15T14:06:49.160Z,8.70
2023-05-15T14:09:28.539Z,8.30
2023-05-15T14:12:02.469Z,8.30
2023-05-15T14:14:37.575Z,10.50
2023-05-15T14:17:14.091Z,8.30
2023-05-15T14:19:52.522Z,8.50
2023-05-15T14:22:27.851Z,8.30
2023-05-15T14:25:04.502Z,10.00
2023-05-15T14:27:42.694Z,9.30
2023-05-15T14:30:20.811Z,9.10
2023-05-15T14:33:03.062Z,8.10
2023-05-15T14:35:41.153Z,8.90
2023-05-15T14:38:26.101Z,8.80
2023-05-15T14:41:04.207Z,8.80
2023-05-15T14:43:44.616Z,9.90
2023-05-15T14:46:26.400Z,9.00
2023-05-15T14:49:06.388Z,9.90
2023-05-15T14:51:43.914Z,10.70
2023-05-15T14:54:21.151Z,11.40
2023-05-15T14:56:57.911Z,9.50
2023-05-15T14:59:42.753Z,9.00
2023-05-15T15:02:21.096Z,9.00
2023-05-15T15:04:58.847Z,9.10
2023-05-15T15:07:51.690Z,9.00
2023-05-15T15:10:27.372Z,8.30
2023-05-15T15:13:06.444Z,8.30
2023-05-15T15:15:44.822Z,9.00
2023-05-15T15:18:22.934Z,9.00
2023-05-15T15:21:00.486Z,8.70
2023-05-15T15:23:36.805Z,8.80
2023-05-15T15:26:13.678Z,9.60
2023-05-15T15:28:48.945Z,9.30
2023-05-15T15:31:24.217Z,9.00
2023-05-15T15:34:04.428Z,9.60
2023-05-15T15:36:42.054Z,9.90
2023-05-15T15:39:17.485Z,10.00
2023-05-15T15:41:54.561Z,10.10
2023-05-15T15:44:29.166Z,10.70
2023-05-15T15:47:06.931Z,10.90
2023-05-15T15:49:44.335Z,11.30
2023-05-15T15:52:20.286Z,9.90
2023-05-15T15:54:56.777Z,10.50
2023-05-15T15:57:33.447Z,10.70
2023-05-15T16:00:12.464Z,10.20
2023-05-15T16:02:49.472Z,10.20
2023-05-15T16:05:24.171Z,12.20
2023-05-15T16:08:01.685Z,10.60
2023-05-15T16:10:37.138Z,10.50
2023-05-15T16:13:12.011Z,10.50
2023-05-15T16:15:47.441Z,10.40
2023-05-15T16:18:23.421Z,10.20
2023-05-15T16:20:59.280Z,10.40
2023-05-15T16:23:39.376Z,10.10
2023-05-15T16:26:15.197Z,10.30
2023-05-15T16:28:50.329Z,10.30
2023-05-15T16:31:26.788Z,11.20
2023-05-15T16:34:04.713Z,11.50
2023-05-15T16:36:43.498Z,10.80
2023-05-15T16:39:19.292Z,10.50
2023-05-15T16:41:59.516Z,11.10
2023-05-15T16:44:35.399Z,11.50
2023-05-15T16:47:09.101Z,11.70
2023-05-15T16:49:45.336Z,12.40
2023-05-15T16:52:21.949Z,12.90
2023-05-15T16:54:57.489Z,13.00
2023-05-15T16:57:32.332Z,13.80
2023-05-15T17:00:13.052Z,12.70
2023-05-15T17:02:51.449Z,12.80
2023-05-15T17:05:26.425Z,12.50
2023-05-15T17:08:02.885Z,12.60
2023-05-15T17:10:39.140Z,12.80
2023-05-15T17:13:14.329Z,12.50
2023-05-15T17:15:50.901Z,12.30
2023-05-15T17:18:27.239Z,11.80
2023-05-15T17:21:03.428Z,12.40
2023-05-15T17:23:38.561Z,12.00
2023-05-15T17:26:14.292Z,12.60
2023-05-15T17:28:50.328Z,12.50
2023-05-15T17:31:27.467Z,12.60
2023-05-15T17:34:02.332Z,11.60
2023-05-15T17:36:37.151Z,12.60
2023-05-15T17:39:12.941Z,12.30
2023-05-15T17:41:51.060Z,11.40
2023-05-15T17:44:29.970Z,12.60
2023-05-15T17:47:05.882Z,12.20
2023-05-15T17:49:39.772Z,11.90
2023-05-15T17:52:14.283Z,11.80
2023-05-15T17:54:48.335Z,11.90
2023-05-15T17:57:23.332Z,12.60
2023-05-15T17:59:58.729Z,11.60
2023-05-15T18:02:33.692Z,12.40
2023-05-15T18:05:12.247Z,13.30
2023-05-15T18:07:50.378Z,13.60
2023-05-15T18:10:28.460Z,13.50
2023-05-15T18:13:05.528Z,13.50
2023-05-15T18:15:51.804Z,13.40
2023-05-15T18:18:29.712Z,13.40
2023-05-15T18:21:09.833Z,13.30
2023-05-15T18:24:10.849Z,14.10
2023-05-15T18:26:52.400Z,14.40
2023-05-15T18:29:34.641Z,14.30
2023-05-15T18:32:15.900Z,13.80
2023-05-15T18:34:55.937Z,14.90
2023-05-15T18:37:55.746Z,15.00
2023-05-15T18:40:35.088Z,16.20
2023-05-15T18:43:12.054Z,15.90
2023-05-15T18:45:49.751Z,16.40
2023-05-15T18:48:25.435Z,17.60
2023-05-15T18:51:00.735Z,17.80
2023-05-15T18:53:39.778Z,17.30
2023-05-15T18:56:16.445Z,17.90
2023-05-15T18:58:53.229Z,18.70
2023-05-15T19:01:46.569Z,18.60
2023-05-15T19:04:23.537Z,18.50
2023-05-15T19:07:18.188Z,18.70
2023-05-15T19:09:57.415Z,18.60
2023-05-15T19:12:41.996Z,19.70
2023-05-15T19:15:20.482Z,19.40
2023-05-15T19:17:57.645Z,19.90
2023-05-15T19:20:37.067Z,20.20
2023-05-15T19:23:16.288Z,21.30
2023-05-15T19:25:54.805Z,21.00
2023-05-15T19:28:33.435Z,21.30
2023-05-15T19:31:17.087Z,22.20
2023-05-15T19:34:09.036Z,21.80
2023-05-15T19:36:50.321Z,22.00
2023-05-15T19:39:24.302Z,21.70
2023-05-15T19:42:03.581Z,21.70
2023-05-15T19:44:40.051Z,22.00
2023-05-15T19:47:15.772Z,22.40
2023-05-15T19:49:51.144Z,21.80
2023-05-15T19:52:27.335Z,22.60
2023-05-15T19:55:19.151Z,21.70
2023-05-15T19:57:58.966Z,21.90
2023-05-15T20:00:34.744Z,22.00
2023-05-15T20:03:11.536Z,21.80
2023-05-15T20:05:52.754Z,20.70
2023-05-15T20:08:27.853Z,21.70
2023-05-15T20:11:08.480Z,20.70
2023-05-15T20:13:43.225Z,20.60
2023-05-15T20:16:22.530Z,20.40
2023-05-15T20:19:00.387Z,20.10
2023-05-15T20:21:44.794Z,20.10
2023-05-15T20:24:20.620Z,18.00
2023-05-15T20:26:56.056Z,17.40
2023-05-15T20:29:32.997Z,18.70
2023-05-15T20:32:09.547Z,17.30
2023-05-15T20:34:48.526Z,17.40
2023-05-15T20:37:28.077Z,15.90
2023-05-15T20:40:13.509Z,16.00
2023-05-15T20:42:48.228Z,14.90
2023-05-15T20:45:25.732Z,15.00
2023-05-15T20:48:02.223Z,14.10
2023-05-15T20:50:38.822Z,13.50
2023-05-15T20:53:18.045Z,14.20
2023-05-15T20:55:55.060Z,13.80
2023-05-15T20:58:30.510Z,14.50
2023-05-15T21:01:14.754Z,14.90
2023-05-15T21:03:58.854Z,15.20
2023-05-15T21:06:34.846Z,15.10
2023-05-15T21:09:12.538Z,16.40
2023-05-15T21:11:49.741Z,16.60
2023-05-15T21:14:25.983Z,17.50
2023-05-15T21:17:09.704Z,17.90
2023-05-15T21:19:48.649Z,18.30
2023-05-15T21:22:25.015Z,18.70
2023-05-15T21:25:00.655Z,18.40
2023-05-15T21:27:38.123Z,19.10
2023-05-15T21:30:17.418Z,19.60
2023-05-15T21:32:54.008Z,19.00
2023-05-15T21:35:29.752Z,20.00
2023-05-15T21:38:04.099Z,19.40
2023-05-15T21:40:40.101Z,19.10
2023-05-15T21:43:15.714Z,20.20
2023-05-15T21:45:52.959Z,19.40
2023-05-15T21:48:32.197Z,20.50
2023-05-15T21:51:09.872Z,20.40
2023-05-15T21:53:44.189Z,19.60
2023-05-15T21:56:19.378Z,19.30
2023-05-15T21:59:01.177Z,18.70
2023-05-15T22:01:38.300Z,19.00
2023-05-15T22:04:14.082Z,19.00
2023-05-15T22:07:08.347Z,18.20
2023-05-15T22:09:53.313Z,17.60
2023-05-15T22:12:28.993Z,17.40
2023-05-15T22:15:06.480Z,17.00
2023-05-15T22:17:44.701Z,16.80
2023-05-15T22:20:20.381Z,16.40
2023-05-15T22:22:57.278Z,16.60
2023-05-15T22:25:36.817Z,17.60
2023-05-15T22:28:15.023Z,17.10
2023-05-15T22:30:59.087Z,18.30
2023-05-15T22:33:39.437Z,16.90
2023-05-15T22:36:15.059Z,17.40
2023-05-15T22:38:57.607Z,17.50
2023-05-15T22:41:33.349Z,17.90
2023-05-15T22:44:08.530Z,17.70
2023-05-15T22:46:47.321Z,17.60
2023-05-15T22:49:25.843Z,17.20
2023-05-15T22:52:00.736Z,16.80
2023-05-15T22:54:36.639Z,17.10
2023-05-15T22:57:13.679Z,16.50
2023-05-15T22:59:53.099Z,15.90
2023-05-15T23:02:36.844Z,16.20
2023-05-15T23:05:15.500Z,15.90
2023-05-15T23:07:51.703Z,14.80
2023-05-15T23:10:28.050Z,16.40
2023-05-15T23:13:04.965Z,15.00
2023-05-15T23:15:41.362Z,15.40
2023-05-15T23:18:18.427Z,16.00
2023-05-15T23:20:59.132Z,15.80
2023-05-15T23:23:41.396Z,15.00
2023-05-15T23:26:19.112Z,14.60
2023-05-15T23:28:56.773Z,14.40
2023-05-15T23:31:41.464Z,14.40
2023-05-15T23:34:17.583Z,14.60
2023-05-15T23:36:54.263Z,14.00
2023-05-15T23:39:30.467Z,14.00
2023-05-15T23:42:04.642Z,12.90
2023-05-15T23:44:42.393Z,13.30
2023-05-15T23:47:18.034Z,13.10
2023-05-15T23:49:56.421Z,12.30
2023-05-15T23:52:32.351Z,12.90
2023-05-15T23:55:15.405Z,12.40
2023-05-15T23:57:51.088Z,11.80
